sensor_id;sensor_type;location;lat;lon;timestamp;temperature;humidity
15409;DHT22;7803;48.130;13.788;2023-03-01T00:02:48;23.50;65.20
15409;DHT22;7803;48.130;13.788;2023-03-01T00:05:50;23.40;65.20
15409;DHT22;7803;48.130;13.788;2023-03-01T00:08:53;23.40;65.20
15409;DHT22;7803;48.130;13.788;2023-03-01T00:11:55;23.40;65.10
15409;DHT22;7803;48.130;13.788;2023-03-01T00:14:57;23.40;65.20
15409;DHT22;7803;48.130;13.788;2023-03-01T00:18:00;23.30;65.10
15409;DHT22;7803;48.130;13.788;2023-03-01T00:21:03;23.40;65.20
15409;DHT22;7803;48.130;13.788;2023-03-01T00:24:05;23.30;65.10
15409;DHT22;7803;48.130;13.788;2023-03-01T00:27:08;23.40;65.10
15409;DHT22;7803;48.130;13.788;2023-03-01T00:30:11;23.30;65.00
15409;DHT22;7803;48.130;13.788;2023-03-01T00:33:14;23.30;65.20
15409;DHT22;7803;48.130;13.788;2023-03-01T00:36:16;23.30;65.00
15409;DHT22;7803;48.130;13.788;2023-03-01T00:39:18;23.30;65.00
15409;DHT22;7803;48.130;13.788;2023-03-01T00:42:20;23.30;65.00
15409;DHT22;7803;48.130;13.788;2023-03-01T00:45:22;23.20;65.00
15409;DHT22;7803;48.130;13.788;2023-03-01T00:48:26;23.20;64.90
15409;DHT22;7803;48.130;13.788;2023-03-01T00:51:28;23.20;65.00
15409;DHT22;7803;48.130;13.788;2023-03-01T00:54:31;23.20;65.00
15409;DHT22;7803;48.130;13.788;2023-03-01T00:57:33;23.20;65.00
15409;DHT22;7803;48.130;13.788;2023-03-01T01:00:35;23.20;65.00
15409;DHT22;7803;48.130;13.788;2023-03-01T01:03:38;23.20;65.00
15409;DHT22;7803;48.130;13.788;2023-03-01T01:06:42;23.20;64.90
15409;DHT22;7803;48.130;13.788;2023-03-01T01:09:45;23.20;65.00
15409;DHT22;7803;48.130;13.788;2023-03-01T01:12:47;23.10;64.90
15409;DHT22;7803;48.130;13.788;2023-03-01T01:15:49;23.10;64.80
15409;DHT22;7803;48.130;13.788;2023-03-01T01:18:52;23.10;64.90
15409;DHT22;7803;48.130;13.788;2023-03-01T01:21:55;23.10;64.90
15409;DHT22;7803;48.130;13.788;2023-03-01T01:24:57;23.10;64.90
15409;DHT22;7803;48.130;13.788;2023-03-01T01:27:59;23.10;64.80
15409;DHT22;7803;48.130;13.788;2023-03-01T01:31:01;23.10;64.80
15409;DHT22;7803;48.130;13.788;2023-03-01T01:34:06;23.00;64.70
15409;DHT22;7803;48.130;13.788;2023-03-01T01:37:08;23.00;65.60
15409;DHT22;7803;48.130;13.788;2023-03-01T01:40:12;23.00;64.70
15409;DHT22;7803;48.130;13.788;2023-03-01T01:43:20;23.00;64.60
15409;DHT22;7803;48.130;13.788;2023-03-01T01:46:28;23.00;64.50
15409;DHT22;7803;48.130;13.788;2023-03-01T01:49:37;23.00;64.60
15409;DHT22;7803;48.130;13.788;2023-03-01T01:52:39;23.00;64.50
15409;DHT22;7803;48.130;13.788;2023-03-01T01:55:46;23.00;64.50
15409;DHT22;7803;48.130;13.788;2023-03-01T01:58:49;23.00;64.40
15409;DHT22;7803;48.130;13.788;2023-03-01T02:01:52;22.90;64.30
15409;DHT22;7803;48.130;13.788;2023-03-01T02:05:02;22.90;64.40
15409;DHT22;7803;48.130;13.788;2023-03-01T02:08:12;23.00;64.40
15409;DHT22;7803;48.130;13.788;2023-03-01T02:11:15;22.90;65.20
15409;DHT22;7803;48.130;13.788;2023-03-01T02:14:19;22.90;64.20
15409;DHT22;7803;48.130;13.788;2023-03-01T02:17:21;22.80;64.20
15409;DHT22;7803;48.130;13.788;2023-03-01T02:20:30;22.90;64.10
15409;DHT22;7803;48.130;13.788;2023-03-01T02:23:35;22.90;64.10
15409;DHT22;7803;48.130;13.788;2023-03-01T02:26:42;22.80;64.00
15409;DHT22;7803;48.130;13.788;2023-03-01T02:29:48;22.80;64.00
15409;DHT22;7803;48.130;13.788;2023-03-01T02:32:51;22.90;64.10
15409;DHT22;7803;48.130;13.788;2023-03-01T02:35:54;22.80;64.00
15409;DHT22;7803;48.130;13.788;2023-03-01T02:38:58;22.80;64.00
15409;DHT22;7803;48.130;13.788;2023-03-01T02:42:03;22.80;64.00
15409;DHT22;7803;48.130;13.788;2023-03-01T02:45:08;22.70;64.10
15409;DHT22;7803;48.130;13.788;2023-03-01T02:48:11;22.80;64.00
15409;DHT22;7803;48.130;13.788;2023-03-01T02:51:33;22.80;64.00
15409;DHT22;7803;48.130;13.788;2023-03-01T02:54:43;22.70;63.80
15409;DHT22;7803;48.130;13.788;2023-03-01T02:57:48;22.70;63.90
15409;DHT22;7803;48.130;13.788;2023-03-01T03:00:52;22.70;63.80
15409;DHT22;7803;48.130;13.788;2023-03-01T03:03:55;22.70;63.80
15409;DHT22;7803;48.130;13.788;2023-03-01T03:06:57;22.70;63.80
15409;DHT22;7803;48.130;13.788;2023-03-01T03:09:59;22.70;63.60
15409;DHT22;7803;48.130;13.788;2023-03-01T03:13:03;22.70;63.50
15409;DHT22;7803;48.130;13.788;2023-03-01T03:16:07;22.70;63.50
15409;DHT22;7803;48.130;13.788;2023-03-01T03:19:10;22.70;63.60
15409;DHT22;7803;48.130;13.788;2023-03-01T03:22:12;22.70;63.70
15409;DHT22;7803;48.130;13.788;2023-03-01T03:25:15;22.60;63.70
15409;DHT22;7803;48.130;13.788;2023-03-01T03:28:17;22.60;63.70
15409;DHT22;7803;48.130;13.788;2023-03-01T03:31:21;22.60;63.70
15409;DHT22;7803;48.130;13.788;2023-03-01T03:34:23;22.60;63.70
15409;DHT22;7803;48.130;13.788;2023-03-01T03:37:25;22.60;63.70
15409;DHT22;7803;48.130;13.788;2023-03-01T03:40:46;22.60;63.80
15409;DHT22;7803;48.130;13.788;2023-03-01T03:43:48;22.60;63.80
15409;DHT22;7803;48.130;13.788;2023-03-01T03:46:52;22.60;63.80
15409;DHT22;7803;48.130;13.788;2023-03-01T03:49:54;22.60;63.80
15409;DHT22;7803;48.130;13.788;2023-03-01T03:52:56;22.50;63.80
15409;DHT22;7803;48.130;13.788;2023-03-01T03:55:59;22.60;63.80
15409;DHT22;7803;48.130;13.788;2023-03-01T03:59:01;22.50;63.80
15409;DHT22;7803;48.130;13.788;2023-03-01T04:02:04;22.50;63.80
15409;DHT22;7803;48.130;13.788;2023-03-01T04:05:10;22.50;63.90
15409;DHT22;7803;48.130;13.788;2023-03-01T04:08:13;22.50;63.90
15409;DHT22;7803;48.130;13.788;2023-03-01T04:11:16;22.50;63.80
15409;DHT22;7803;48.130;13.788;2023-03-01T04:14:30;22.50;63.90
15409;DHT22;7803;48.130;13.788;2023-03-01T04:17:33;22.50;63.80
15409;DHT22;7803;48.130;13.788;2023-03-01T04:20:36;22.50;63.80
15409;DHT22;7803;48.130;13.788;2023-03-01T04:23:38;22.50;63.80
15409;DHT22;7803;48.130;13.788;2023-03-01T04:26:41;22.50;63.80
15409;DHT22;7803;48.130;13.788;2023-03-01T04:29:43;22.50;63.80
15409;DHT22;7803;48.130;13.788;2023-03-01T04:32:47;22.50;63.90
15409;DHT22;7803;48.130;13.788;2023-03-01T04:35:51;22.50;63.90
15409;DHT22;7803;48.130;13.788;2023-03-01T04:38:53;22.50;63.80
15409;DHT22;7803;48.130;13.788;2023-03-01T04:41:56;22.50;63.80
15409;DHT22;7803;48.130;13.788;2023-03-01T04:44:58;22.60;63.80
15409;DHT22;7803;48.130;13.788;2023-03-01T04:48:02;22.60;63.70
15409;DHT22;7803;48.130;13.788;2023-03-01T04:51:05;22.60;63.70
15409;DHT22;7803;48.130;13.788;2023-03-01T04:54:08;22.60;63.70
15409;DHT22;7803;48.130;13.788;2023-03-01T04:57:10;22.60;63.70
15409;DHT22;7803;48.130;13.788;2023-03-01T05:00:14;22.60;63.60
15409;DHT22;7803;48.130;13.788;2023-03-01T05:03:23;22.60;63.60
15409;DHT22;7803;48.130;13.788;2023-03-01T05:06:25;22.70;63.60
15409;DHT22;7803;48.130;13.788;2023-03-01T05:09:28;22.60;63.50
15409;DHT22;7803;48.130;13.788;2023-03-01T05:12:30;22.70;63.50
15409;DHT22;7803;48.130;13.788;2023-03-01T05:15:32;22.70;63.50
15409;DHT22;7803;48.130;13.788;2023-03-01T05:18:36;22.70;63.50
15409;DHT22;7803;48.130;13.788;2023-03-01T05:21:38;22.80;63.50
15409;DHT22;7803;48.130;13.788;2023-03-01T05:25:01;22.70;63.30
15409;DHT22;7803;48.130;13.788;2023-03-01T05:28:03;22.80;63.30
15409;DHT22;7803;48.130;13.788;2023-03-01T05:31:06;22.80;63.30
15409;DHT22;7803;48.130;13.788;2023-03-01T05:34:11;22.80;63.30
15409;DHT22;7803;48.130;13.788;2023-03-01T05:37:13;22.90;63.20
15409;DHT22;7803;48.130;13.788;2023-03-01T05:40:17;23.00;63.30
15409;DHT22;7803;48.130;13.788;2023-03-01T05:43:20;22.90;63.10
15409;DHT22;7803;48.130;13.788;2023-03-01T05:46:22;23.00;64.00
15409;DHT22;7803;48.130;13.788;2023-03-01T05:49:26;23.00;63.00
15409;DHT22;7803;48.130;13.788;2023-03-01T05:52:28;23.00;62.90
15409;DHT22;7803;48.130;13.788;2023-03-01T05:55:31;23.10;62.90
15409;DHT22;7803;48.130;13.788;2023-03-01T05:58:34;23.00;62.80
15409;DHT22;7803;48.130;13.788;2023-03-01T06:01:37;23.10;62.20
15409;DHT22;7803;48.130;13.788;2023-03-01T06:04:40;23.10;60.50
15409;DHT22;7803;48.130;13.788;2023-03-01T06:07:42;23.10;61.50
15409;DHT22;7803;48.130;13.788;2023-03-01T06:10:44;23.10;61.60
15409;DHT22;7803;48.130;13.788;2023-03-01T06:13:48;23.10;61.60
15409;DHT22;7803;48.130;13.788;2023-03-01T06:16:50;23.10;61.70
15409;DHT22;7803;48.130;13.788;2023-03-01T06:19:53;23.20;61.80
15409;DHT22;7803;48.130;13.788;2023-03-01T06:22:56;23.20;61.90
15409;DHT22;7803;48.130;13.788;2023-03-01T06:25:58;23.20;61.90
15409;DHT22;7803;48.130;13.788;2023-03-01T06:29:00;23.20;62.00
15409;DHT22;7803;48.130;13.788;2023-03-01T06:32:02;23.30;62.10
15409;DHT22;7803;48.130;13.788;2023-03-01T06:35:07;23.30;62.10
15409;DHT22;7803;48.130;13.788;2023-03-01T06:38:09;23.30;62.10
15409;DHT22;7803;48.130;13.788;2023-03-01T06:41:11;23.30;62.00
15409;DHT22;7803;48.130;13.788;2023-03-01T06:44:13;23.30;62.00
15409;DHT22;7803;48.130;13.788;2023-03-01T06:47:15;23.40;62.10
15409;DHT22;7803;48.130;13.788;2023-03-01T06:50:19;23.40;62.00
15409;DHT22;7803;48.130;13.788;2023-03-01T06:53:21;23.40;63.00
15409;DHT22;7803;48.130;13.788;2023-03-01T06:56:23;23.30;62.00
15409;DHT22;7803;48.130;13.788;2023-03-01T06:59:25;23.40;62.10
15409;DHT22;7803;48.130;13.788;2023-03-01T07:02:27;23.40;62.00
15409;DHT22;7803;48.130;13.788;2023-03-01T07:05:33;23.40;62.00
15409;DHT22;7803;48.130;13.788;2023-03-01T07:08:35;23.40;62.00
15409;DHT22;7803;48.130;13.788;2023-03-01T07:11:38;23.40;62.00
15409;DHT22;7803;48.130;13.788;2023-03-01T07:14:40;23.50;62.00
15409;DHT22;7803;48.130;13.788;2023-03-01T07:17:42;23.50;62.00
15409;DHT22;7803;48.130;13.788;2023-03-01T07:20:46;23.50;62.00
15409;DHT22;7803;48.130;13.788;2023-03-01T07:23:48;23.50;61.90
15409;DHT22;7803;48.130;13.788;2023-03-01T07:26:51;23.50;61.90
15409;DHT22;7803;48.130;13.788;2023-03-01T07:29:54;23.50;61.90
15409;DHT22;7803;48.130;13.788;2023-03-01T07:32:57;23.50;61.80
15409;DHT22;7803;48.130;13.788;2023-03-01T07:36:03;23.60;62.00
15409;DHT22;7803;48.130;13.788;2023-03-01T07:39:05;23.60;61.90
15409;DHT22;7803;48.130;13.788;2023-03-01T07:42:07;23.60;61.90
15409;DHT22;7803;48.130;13.788;2023-03-01T07:45:10;23.60;61.90
15409;DHT22;7803;48.130;13.788;2023-03-01T07:48:12;23.60;61.80
15409;DHT22;7803;48.130;13.788;2023-03-01T07:51:15;23.60;61.80
15409;DHT22;7803;48.130;13.788;2023-03-01T07:54:17;23.60;61.80
15409;DHT22;7803;48.130;13.788;2023-03-01T07:57:20;23.60;61.80
15409;DHT22;7803;48.130;13.788;2023-03-01T08:00:22;23.60;62.70
15409;DHT22;7803;48.130;13.788;2023-03-01T08:03:24;23.70;61.80
15409;DHT22;7803;48.130;13.788;2023-03-01T08:06:28;23.60;61.80
15409;DHT22;7803;48.130;13.788;2023-03-01T08:09:30;23.70;62.70
15409;DHT22;7803;48.130;13.788;2023-03-01T08:12:32;23.70;61.60
15409;DHT22;7803;48.130;13.788;2023-03-01T08:15:34;23.70;61.60
15409;DHT22;7803;48.130;13.788;2023-03-01T08:18:36;23.70;61.60
15409;DHT22;7803;48.130;13.788;2023-03-01T08:21:40;23.70;61.50
15409;DHT22;7803;48.130;13.788;2023-03-01T08:24:42;23.70;61.50
15409;DHT22;7803;48.130;13.788;2023-03-01T08:27:44;23.70;61.60
15409;DHT22;7803;48.130;13.788;2023-03-01T08:30:46;23.70;61.50
15409;DHT22;7803;48.130;13.788;2023-03-01T08:33:49;23.70;61.50
15409;DHT22;7803;48.130;13.788;2023-03-01T08:36:57;23.70;61.50
15409;DHT22;7803;48.130;13.788;2023-03-01T08:39:59;23.80;61.60
15409;DHT22;7803;48.130;13.788;2023-03-01T08:43:01;23.80;61.50
15409;DHT22;7803;48.130;13.788;2023-03-01T08:46:04;23.80;61.60
15409;DHT22;7803;48.130;13.788;2023-03-01T08:49:06;23.80;61.50
15409;DHT22;7803;48.130;13.788;2023-03-01T08:52:10;23.80;61.40
15409;DHT22;7803;48.130;13.788;2023-03-01T08:55:12;23.80;61.40
15409;DHT22;7803;48.130;13.788;2023-03-01T08:58:15;23.90;61.50
15409;DHT22;7803;48.130;13.788;2023-03-01T09:01:18;23.80;61.30
15409;DHT22;7803;48.130;13.788;2023-03-01T09:04:21;23.90;61.40
15409;DHT22;7803;48.130;13.788;2023-03-01T09:07:25;23.80;61.30
15409;DHT22;7803;48.130;13.788;2023-03-01T09:10:28;23.90;61.30
15409;DHT22;7803;48.130;13.788;2023-03-01T09:13:31;23.90;61.30
15409;DHT22;7803;48.130;13.788;2023-03-01T09:16:33;23.90;61.30
15409;DHT22;7803;48.130;13.788;2023-03-01T09:19:36;23.90;61.20
15409;DHT22;7803;48.130;13.788;2023-03-01T09:22:40;23.90;61.20
15409;DHT22;7803;48.130;13.788;2023-03-01T09:25:42;23.90;61.30
15409;DHT22;7803;48.130;13.788;2023-03-01T09:28:44;23.90;61.20
15409;DHT22;7803;48.130;13.788;2023-03-01T09:31:46;23.90;61.20
15409;DHT22;7803;48.130;13.788;2023-03-01T09:34:48;23.90;61.20
15409;DHT22;7803;48.130;13.788;2023-03-01T09:38:09;23.90;61.20
15409;DHT22;7803;48.130;13.788;2023-03-01T09:41:22;23.90;61.30
15409;DHT22;7803;48.130;13.788;2023-03-01T09:44:32;23.90;61.30
15409;DHT22;7803;48.130;13.788;2023-03-01T09:47:36;23.90;62.00
15409;DHT22;7803;48.130;13.788;2023-03-01T09:50:41;24.00;61.10
15409;DHT22;7803;48.130;13.788;2023-03-01T09:53:46;23.90;61.10
15409;DHT22;7803;48.130;13.788;2023-03-01T09:56:57;23.90;61.00
15409;DHT22;7803;48.130;13.788;2023-03-01T10:00:12;24.00;61.10
15409;DHT22;7803;48.130;13.788;2023-03-01T10:03:23;24.00;61.10
15409;DHT22;7803;48.130;13.788;2023-03-01T10:06:28;24.00;61.10
15409;DHT22;7803;48.130;13.788;2023-03-01T10:09:34;24.00;61.10
15409;DHT22;7803;48.130;13.788;2023-03-01T10:12:39;24.10;61.10
15409;DHT22;7803;48.130;13.788;2023-03-01T10:15:45;24.00;61.00
15409;DHT22;7803;48.130;13.788;2023-03-01T10:18:54;24.00;61.00
15409;DHT22;7803;48.130;13.788;2023-03-01T10:22:00;24.00;61.00
15409;DHT22;7803;48.130;13.788;2023-03-01T10:25:08;24.00;61.00
15409;DHT22;7803;48.130;13.788;2023-03-01T10:28:17;24.00;61.10
15409;DHT22;7803;48.130;13.788;2023-03-01T10:31:24;24.10;61.20
15409;DHT22;7803;48.130;13.788;2023-03-01T10:34:30;24.00;61.20
15409;DHT22;7803;48.130;13.788;2023-03-01T10:37:32;24.10;61.20
15409;DHT22;7803;48.130;13.788;2023-03-01T10:40:49;24.10;61.10
15409;DHT22;7803;48.130;13.788;2023-03-01T10:43:53;24.00;61.10
15409;DHT22;7803;48.130;13.788;2023-03-01T10:47:00;24.10;61.20
15409;DHT22;7803;48.130;13.788;2023-03-01T10:50:04;24.10;61.20
15409;DHT22;7803;48.130;13.788;2023-03-01T10:53:26;24.10;61.30
15409;DHT22;7803;48.130;13.788;2023-03-01T10:56:46;24.10;61.30
15409;DHT22;7803;48.130;13.788;2023-03-01T11:00:02;24.10;61.30
15409;DHT22;7803;48.130;13.788;2023-03-01T11:03:12;24.10;61.30
15409;DHT22;7803;48.130;13.788;2023-03-01T11:06:21;24.10;61.40
15409;DHT22;7803;48.130;13.788;2023-03-01T11:09:24;24.10;61.30
15409;DHT22;7803;48.130;13.788;2023-03-01T11:12:29;24.10;61.40
15409;DHT22;7803;48.130;13.788;2023-03-01T11:15:33;24.10;61.30
15409;DHT22;7803;48.130;13.788;2023-03-01T11:18:35;24.10;61.40
15409;DHT22;7803;48.130;13.788;2023-03-01T11:21:41;24.10;61.40
15409;DHT22;7803;48.130;13.788;2023-03-01T11:24:47;24.10;61.30
15409;DHT22;7803;48.130;13.788;2023-03-01T11:27:52;24.10;61.30
15409;DHT22;7803;48.130;13.788;2023-03-01T11:30:58;24.10;61.30
15409;DHT22;7803;48.130;13.788;2023-03-01T11:34:07;24.10;61.30
15409;DHT22;7803;48.130;13.788;2023-03-01T11:37:19;24.10;61.30
15409;DHT22;7803;48.130;13.788;2023-03-01T11:40:27;24.10;61.40
15409;DHT22;7803;48.130;13.788;2023-03-01T11:43:47;24.10;62.30
15409;DHT22;7803;48.130;13.788;2023-03-01T11:47:05;24.10;61.50
15409;DHT22;7803;48.130;13.788;2023-03-01T11:50:18;24.10;61.50
15409;DHT22;7803;48.130;13.788;2023-03-01T11:53:34;24.10;61.50
15409;DHT22;7803;48.130;13.788;2023-03-01T11:56:45;24.20;61.60
15409;DHT22;7803;48.130;13.788;2023-03-01T11:59:59;24.10;61.60
15409;DHT22;7803;48.130;13.788;2023-03-01T12:03:39;24.20;61.70
15409;DHT22;7803;48.130;13.788;2023-03-01T12:06:52;24.10;62.60
15409;DHT22;7803;48.130;13.788;2023-03-01T12:14:04;24.20;62.70
15409;DHT22;7803;48.130;13.788;2023-03-01T12:17:25;24.20;61.70
15409;DHT22;7803;48.130;13.788;2023-03-01T12:20:35;24.20;61.80
15409;DHT22;7803;48.130;13.788;2023-03-01T12:24:08;24.20;61.80
15409;DHT22;7803;48.130;13.788;2023-03-01T12:27:28;24.20;61.80
15409;DHT22;7803;48.130;13.788;2023-03-01T12:30:42;24.20;61.80
15409;DHT22;7803;48.130;13.788;2023-03-01T12:33:56;24.20;61.80
15409;DHT22;7803;48.130;13.788;2023-03-01T12:37:20;24.20;61.80
15409;DHT22;7803;48.130;13.788;2023-03-01T12:40:38;24.20;61.80
15409;DHT22;7803;48.130;13.788;2023-03-01T12:43:53;24.20;61.80
15409;DHT22;7803;48.130;13.788;2023-03-01T12:47:09;24.20;61.80
15409;DHT22;7803;48.130;13.788;2023-03-01T12:50:19;24.20;61.90
15409;DHT22;7803;48.130;13.788;2023-03-01T12:53:24;24.20;61.90
15409;DHT22;7803;48.130;13.788;2023-03-01T12:56:29;24.10;61.90
15409;DHT22;7803;48.130;13.788;2023-03-01T12:59:37;24.20;62.00
15409;DHT22;7803;48.130;13.788;2023-03-01T13:02:46;24.20;62.00
15409;DHT22;7803;48.130;13.788;2023-03-01T13:06:04;24.20;62.00
15409;DHT22;7803;48.130;13.788;2023-03-01T13:09:14;24.20;62.00
15409;DHT22;7803;48.130;13.788;2023-03-01T13:12:43;24.20;62.00
15409;DHT22;7803;48.130;13.788;2023-03-01T13:15:46;24.20;61.90
15409;DHT22;7803;48.130;13.788;2023-03-01T13:18:49;24.20;62.00
15409;DHT22;7803;48.130;13.788;2023-03-01T13:21:54;24.20;62.00
15409;DHT22;7803;48.130;13.788;2023-03-01T13:25:13;24.20;62.00
15409;DHT22;7803;48.130;13.788;2023-03-01T13:28:49;24.20;62.00
15409;DHT22;7803;48.130;13.788;2023-03-01T13:32:00;24.20;63.00
15409;DHT22;7803;48.130;13.788;2023-03-01T13:35:43;24.20;62.00
15409;DHT22;7803;48.130;13.788;2023-03-01T13:38:55;24.20;62.00
15409;DHT22;7803;48.130;13.788;2023-03-01T13:41:58;24.20;62.10
15409;DHT22;7803;48.130;13.788;2023-03-01T13:45:01;24.20;62.00
15409;DHT22;7803;48.130;13.788;2023-03-01T13:48:09;24.20;62.00
15409;DHT22;7803;48.130;13.788;2023-03-01T13:51:12;24.20;62.10
15409;DHT22;7803;48.130;13.788;2023-03-01T13:54:22;24.20;62.10
15409;DHT22;7803;48.130;13.788;2023-03-01T13:57:31;24.20;62.10
15409;DHT22;7803;48.130;13.788;2023-03-01T14:00:36;24.20;62.20
15409;DHT22;7803;48.130;13.788;2023-03-01T14:03:41;24.20;62.20
15409;DHT22;7803;48.130;13.788;2023-03-01T14:06:44;24.30;62.20
15409;DHT22;7803;48.130;13.788;2023-03-01T14:09:50;24.20;62.00
15409;DHT22;7803;48.130;13.788;2023-03-01T14:12:55;24.20;62.00
15409;DHT22;7803;48.130;13.788;2023-03-01T14:16:16;24.20;62.00
15409;DHT22;7803;48.130;13.788;2023-03-01T14:19:23;24.20;62.00
15409;DHT22;7803;48.130;13.788;2023-03-01T14:22:28;24.20;62.10
15409;DHT22;7803;48.130;13.788;2023-03-01T14:25:34;24.20;62.00
15409;DHT22;7803;48.130;13.788;2023-03-01T14:28:37;24.20;62.00
15409;DHT22;7803;48.130;13.788;2023-03-01T14:31:40;24.20;62.10
15409;DHT22;7803;48.130;13.788;2023-03-01T14:34:44;24.20;62.10
15409;DHT22;7803;48.130;13.788;2023-03-01T14:37:46;24.20;62.00
15409;DHT22;7803;48.130;13.788;2023-03-01T14:40:52;24.20;62.00
15409;DHT22;7803;48.130;13.788;2023-03-01T14:43:57;24.20;62.00
15409;DHT22;7803;48.130;13.788;2023-03-01T14:47:00;24.20;62.00
15409;DHT22;7803;48.130;13.788;2023-03-01T14:50:07;24.20;62.00
15409;DHT22;7803;48.130;13.788;2023-03-01T14:53:17;24.20;61.90
15409;DHT22;7803;48.130;13.788;2023-03-01T14:56:21;24.20;61.90
15409;DHT22;7803;48.130;13.788;2023-03-01T14:59:24;24.20;61.80
15409;DHT22;7803;48.130;13.788;2023-03-01T15:02:27;24.20;61.90
15409;DHT22;7803;48.130;13.788;2023-03-01T15:05:32;24.20;61.90
15409;DHT22;7803;48.130;13.788;2023-03-01T15:08:35;24.20;61.90
15409;DHT22;7803;48.130;13.788;2023-03-01T15:11:40;24.20;61.80
15409;DHT22;7803;48.130;13.788;2023-03-01T15:14:44;24.20;61.80
15409;DHT22;7803;48.130;13.788;2023-03-01T15:17:52;24.20;61.70
15409;DHT22;7803;48.130;13.788;2023-03-01T15:21:06;24.20;61.70
15409;DHT22;7803;48.130;13.788;2023-03-01T15:24:17;24.20;61.70
15409;DHT22;7803;48.130;13.788;2023-03-01T15:27:25;24.20;61.60
15409;DHT22;7803;48.130;13.788;2023-03-01T15:30:29;24.20;61.60
15409;DHT22;7803;48.130;13.788;2023-03-01T15:33:38;24.20;61.60
15409;DHT22;7803;48.130;13.788;2023-03-01T15:36:47;24.20;61.50
15409;DHT22;7803;48.130;13.788;2023-03-01T15:39:54;24.20;61.60
15409;DHT22;7803;48.130;13.788;2023-03-01T15:42:58;24.20;61.60
15409;DHT22;7803;48.130;13.788;2023-03-01T15:46:00;24.20;61.60
15409;DHT22;7803;48.130;13.788;2023-03-01T15:49:04;24.20;61.60
15409;DHT22;7803;48.130;13.788;2023-03-01T15:52:12;24.10;61.50
15409;DHT22;7803;48.130;13.788;2023-03-01T15:55:16;24.20;61.60
15409;DHT22;7803;48.130;13.788;2023-03-01T15:58:22;24.20;61.60
15409;DHT22;7803;48.130;13.788;2023-03-01T16:01:25;24.10;61.60
15409;DHT22;7803;48.130;13.788;2023-03-01T16:04:27;24.10;61.60
15409;DHT22;7803;48.130;13.788;2023-03-01T16:07:29;24.10;61.60
15409;DHT22;7803;48.130;13.788;2023-03-01T16:10:33;24.10;61.60
15409;DHT22;7803;48.130;13.788;2023-03-01T16:13:38;24.10;61.70
15409;DHT22;7803;48.130;13.788;2023-03-01T16:16:40;24.10;61.70
15409;DHT22;7803;48.130;13.788;2023-03-01T16:19:43;24.10;61.80
15409;DHT22;7803;48.130;13.788;2023-03-01T16:22:45;24.00;61.70
15409;DHT22;7803;48.130;13.788;2023-03-01T16:25:47;24.00;61.80
15409;DHT22;7803;48.130;13.788;2023-03-01T16:28:54;24.00;61.80
15409;DHT22;7803;48.130;13.788;2023-03-01T16:32:00;24.00;61.80
15409;DHT22;7803;48.130;13.788;2023-03-01T16:35:02;24.00;61.80
15409;DHT22;7803;48.130;13.788;2023-03-01T16:38:05;24.00;61.90
15409;DHT22;7803;48.130;13.788;2023-03-01T16:41:11;24.00;61.90
15409;DHT22;7803;48.130;13.788;2023-03-01T16:44:16;24.00;61.90
15409;DHT22;7803;48.130;13.788;2023-03-01T16:47:18;24.00;61.90
15409;DHT22;7803;48.130;13.788;2023-03-01T16:50:20;24.00;61.90
15409;DHT22;7803;48.130;13.788;2023-03-01T16:53:22;24.00;61.80
15409;DHT22;7803;48.130;13.788;2023-03-01T16:56:24;24.00;61.80
15409;DHT22;7803;48.130;13.788;2023-03-01T16:59:28;24.00;61.70
15409;DHT22;7803;48.130;13.788;2023-03-01T17:02:30;24.00;61.70
15409;DHT22;7803;48.130;13.788;2023-03-01T17:05:33;24.10;61.60
15409;DHT22;7803;48.130;13.788;2023-03-01T17:08:36;24.10;61.60
15409;DHT22;7803;48.130;13.788;2023-03-01T17:11:38;24.00;61.60
15409;DHT22;7803;48.130;13.788;2023-03-01T17:14:43;24.10;61.60
15409;DHT22;7803;48.130;13.788;2023-03-01T17:17:45;24.10;61.60
15409;DHT22;7803;48.130;13.788;2023-03-01T17:20:51;24.10;61.60
15409;DHT22;7803;48.130;13.788;2023-03-01T17:23:55;24.10;61.60
15409;DHT22;7803;48.130;13.788;2023-03-01T17:26:58;24.10;61.50
15409;DHT22;7803;48.130;13.788;2023-03-01T17:30:02;24.10;61.50
15409;DHT22;7803;48.130;13.788;2023-03-01T17:33:05;24.10;61.50
15409;DHT22;7803;48.130;13.788;2023-03-01T17:36:07;24.10;61.50
15409;DHT22;7803;48.130;13.788;2023-03-01T17:39:10;24.10;61.50
15409;DHT22;7803;48.130;13.788;2023-03-01T17:42:12;24.10;61.50
15409;DHT22;7803;48.130;13.788;2023-03-01T17:45:16;24.10;61.50
15409;DHT22;7803;48.130;13.788;2023-03-01T17:48:21;24.10;61.50
15409;DHT22;7803;48.130;13.788;2023-03-01T17:51:23;24.10;61.50
15409;DHT22;7803;48.130;13.788;2023-03-01T17:54:26;24.10;61.40
15409;DHT22;7803;48.130;13.788;2023-03-01T17:57:29;24.10;61.50
15409;DHT22;7803;48.130;13.788;2023-03-01T18:00:34;24.10;61.50
15409;DHT22;7803;48.130;13.788;2023-03-01T18:03:37;24.10;61.40
15409;DHT22;7803;48.130;13.788;2023-03-01T18:06:39;24.10;61.50
15409;DHT22;7803;48.130;13.788;2023-03-01T18:09:42;24.10;61.50
15409;DHT22;7803;48.130;13.788;2023-03-01T18:12:45;24.10;61.50
15409;DHT22;7803;48.130;13.788;2023-03-01T18:15:49;24.20;61.50
15409;DHT22;7803;48.130;13.788;2023-03-01T18:18:53;24.20;62.30
15409;DHT22;7803;48.130;13.788;2023-03-01T18:21:56;24.20;61.50
15409;DHT22;7803;48.130;13.788;2023-03-01T18:24:58;24.10;61.40
15409;DHT22;7803;48.130;13.788;2023-03-01T18:28:01;24.20;61.50
15409;DHT22;7803;48.130;13.788;2023-03-01T18:31:09;24.10;61.40
15409;DHT22;7803;48.130;13.788;2023-03-01T18:34:11;24.20;61.60
15409;DHT22;7803;48.130;13.788;2023-03-01T18:37:15;24.20;61.60
15409;DHT22;7803;48.130;13.788;2023-03-01T18:40:21;24.10;61.60
15409;DHT22;7803;48.130;13.788;2023-03-01T18:43:23;24.20;61.60
15409;DHT22;7803;48.130;13.788;2023-03-01T18:46:33;24.20;61.70
15409;DHT22;7803;48.130;13.788;2023-03-01T18:49:38;24.20;61.70
15409;DHT22;7803;48.130;13.788;2023-03-01T18:52:41;24.20;61.80
15409;DHT22;7803;48.130;13.788;2023-03-01T18:55:44;24.20;61.80
15409;DHT22;7803;48.130;13.788;2023-03-01T18:58:47;24.20;61.80
15409;DHT22;7803;48.130;13.788;2023-03-01T19:01:52;24.20;61.80
15409;DHT22;7803;48.130;13.788;2023-03-01T19:04:55;24.20;61.80
15409;DHT22;7803;48.130;13.788;2023-03-01T19:07:57;24.20;61.80
15409;DHT22;7803;48.130;13.788;2023-03-01T19:11:03;24.20;61.90
15409;DHT22;7803;48.130;13.788;2023-03-01T19:14:06;24.20;61.90
15409;DHT22;7803;48.130;13.788;2023-03-01T19:17:11;24.20;61.80
15409;DHT22;7803;48.130;13.788;2023-03-01T19:20:14;24.30;61.90
15409;DHT22;7803;48.130;13.788;2023-03-01T19:23:17;24.20;61.90
15409;DHT22;7803;48.130;13.788;2023-03-01T19:26:22;24.20;62.70
15409;DHT22;7803;48.130;13.788;2023-03-01T19:29:26;24.20;61.80
15409;DHT22;7803;48.130;13.788;2023-03-01T19:32:31;24.20;61.80
15409;DHT22;7803;48.130;13.788;2023-03-01T19:35:34;24.30;61.80